Time;durP1;ratioP1;P1;durP2;ratioP2;P2;SDS_P1;SDS_P2;PMS_P1;PMS_P2;Temp;Humidity;BMP_temperature;BMP_pressure;BME280_temperature;BME280_humidity;BME280_pressure;Samples;Min_cycle;Max_cycle;Signal;HPM_P1;HPM_P2
2021/04/16 00:01:45;;;;;;;13.52;8.88;;;11.30;80.40;;;;;;5007842;28;20072;-66
2021/04/16 00:04:14;;;;;;;12.77;8.60;;;11.30;80.50;;;;;;5000972;28;20034;-64
2021/04/16 00:06:39;;;;;;;12.63;8.95;;;11.30;80.30;;;;;;4997936;28;20065;-64
2021/04/16 00:09:06;;;;;;;15.13;9.00;;;11.20;80.60;;;;;;4997690;28;20054;-64
2021/04/16 00:11:32;;;;;;;14.88;9.77;;;11.10;80.70;;;;;;4998408;28;20239;-66
2021/04/16 00:13:58;;;;;;;14.93;9.57;;;11.10;81.00;;;;;;4999250;28;20494;-66
2021/04/16 00:16:28;;;;;;;16.40;10.10;;;11.10;81.30;;;;;;5016664;28;20030;-64
2021/04/16 00:18:53;;;;;;;12.95;10.20;;;11.10;81.50;;;;;;5016516;28;20485;-63
2021/04/16 00:21:20;;;;;;;16.13;10.35;;;11.10;81.60;;;;;;5016598;28;20021;-66
2021/04/16 00:23:46;;;;;;;15.13;10.48;;;11.10;81.80;;;;;;5016500;28;20041;-66
2021/04/16 00:26:13;;;;;;;19.10;11.23;;;11.10;81.60;;;;;;5016803;28;20022;-67
2021/04/16 00:28:39;;;;;;;15.90;11.27;;;11.20;81.80;;;;;;5016695;28;20096;-64
2021/04/16 00:31:07;;;;;;;17.58;11.30;;;11.20;81.60;;;;;;5028645;28;20473;-64
2021/04/16 00:33:33;;;;;;;15.23;10.65;;;11.20;81.70;;;;;;5036084;28;20048;-64
2021/04/16 00:35:59;;;;;;;16.60;10.48;;;11.30;81.80;;;;;;5036073;28;20030;-64
2021/04/16 00:38:25;;;;;;;15.82;10.70;;;11.30;81.90;;;;;;5028192;28;20041;-64
2021/04/16 00:40:55;;;;;;;16.92;11.27;;;11.30;81.60;;;;;;4996698;28;20030;-64
2021/04/16 00:43:24;;;;;;;15.82;11.10;;;11.20;81.70;;;;;;5000025;28;20037;-64
2021/04/16 00:46:14;;;;;;;18.05;11.77;;;11.20;81.80;;;;;;5014255;28;20452;-64
2021/04/16 00:48:41;;;;;;;14.70;11.63;;;11.20;81.90;;;;;;4966237;28;20054;-64
2021/04/16 00:51:38;;;;;;;16.70;13.07;;;11.20;81.90;;;;;;4996437;28;20035;-64
2021/04/16 00:54:09;;;;;;;16.13;12.25;;;11.30;82.00;;;;;;4994121;28;20462;-64
2021/04/16 00:56:35;;;;;;;14.32;11.10;;;11.20;81.90;;;;;;4996236;28;20093;-64
2021/04/16 00:59:02;;;;;;;14.50;10.90;;;11.20;81.90;;;;;;4994995;28;20039;-64
2021/04/16 01:01:28;;;;;;;15.25;10.15;;;11.20;82.20;;;;;;5011231;28;20037;-64
2021/04/16 01:03:53;;;;;;;14.05;10.63;;;11.20;82.00;;;;;;5015403;28;20442;-64
2021/04/16 01:06:21;;;;;;;17.83;11.60;;;11.20;82.00;;;;;;5015780;28;20221;-64
2021/04/16 01:08:47;;;;;;;17.52;11.48;;;11.20;81.90;;;;;;5015172;28;20036;-64
2021/04/16 01:11:13;;;;;;;15.50;11.80;;;11.20;82.00;;;;;;5015720;28;20030;-65
2021/04/16 01:13:40;;;;;;;15.35;10.55;;;11.20;82.10;;;;;;5015712;28;20026;-64
2021/04/16 01:16:10;;;;;;;16.35;11.48;;;11.20;82.20;;;;;;5000526;28;20019;-64
2021/04/16 01:18:39;;;;;;;16.67;10.93;;;11.20;82.30;;;;;;4996314;28;20032;-64
2021/04/16 01:21:18;;;;;;;17.50;11.40;;;11.20;82.30;;;;;;4996006;28;20088;-64
2021/04/16 01:23:58;;;;;;;15.68;10.75;;;11.30;82.40;;;;;;4995922;28;20074;-64
2021/04/16 01:26:32;;;;;;;20.15;11.90;;;11.30;82.40;;;;;;4995761;28;20030;-64
2021/04/16 01:28:58;;;;;;;19.35;11.85;;;11.30;82.30;;;;;;4995699;28;20512;-64
2021/04/16 01:31:27;;;;;;;15.18;10.88;;;11.30;82.10;;;;;;5029921;28;20022;-64
2021/04/16 01:33:53;;;;;;;16.88;12.35;;;11.30;82.80;;;;;;5035031;28;20036;-66
2021/04/16 01:36:30;;;;;;;14.38;10.38;;;11.30;82.30;;;;;;5034971;28;20025;-64
2021/04/16 01:38:58;;;;;;;13.23;9.50;;;11.40;82.30;;;;;;5035249;28;20060;-64
2021/04/16 01:41:26;;;;;;;13.68;10.35;;;11.40;82.30;;;;;;5034880;28;20022;-64
2021/04/16 01:44:24;;;;;;;14.93;10.55;;;11.40;82.20;;;;;;5030813;28;20048;-64
2021/04/16 01:46:58;;;;;;;15.90;10.65;;;11.50;82.00;;;;;;4987416;28;20438;-64
2021/04/16 01:49:30;;;;;;;14.10;11.27;;;11.50;82.10;;;;;;4995590;28;20438;-64
2021/04/16 01:51:56;;;;;;;16.05;11.32;;;11.60;81.90;;;;;;4995402;28;20030;-64
2021/04/16 01:54:32;;;;;;;13.88;9.48;;;11.60;82.00;;;;;;4995216;28;20031;-64
2021/04/16 01:57:05;;;;;;;15.32;9.05;;;11.60;81.90;;;;;;4998936;28;20029;-64
2021/04/16 01:59:35;;;;;;;11.05;8.25;;;11.70;81.90;;;;;;5015776;28;20034;-64
2021/04/16 02:02:01;;;;;;;11.45;7.85;;;11.70;81.70;;;;;;5025021;28;20425;-64
2021/04/16 02:04:27;;;;;;;14.88;7.80;;;11.70;81.50;;;;;;4995624;28;20026;-64
2021/04/16 02:06:53;;;;;;;10.88;7.63;;;11.80;81.40;;;;;;5012992;28;20030;-64
2021/04/16 02:09:24;;;;;;;11.18;7.57;;;11.80;81.30;;;;;;5013483;28;20032;-66
2021/04/16 02:11:51;;;;;;;11.43;7.85;;;11.80;81.10;;;;;;5013640;28;20026;-64
2021/04/16 02:14:19;;;;;;;13.73;8.60;;;11.80;81.10;;;;;;5013755;28;20425;-64
2021/04/16 02:16:47;;;;;;;12.70;7.95;;;11.90;80.80;;;;;;5013732;28;20028;-66
2021/04/16 02:19:13;;;;;;;14.15;8.85;;;11.80;80.50;;;;;;5014280;28;20032;-64
2021/04/16 02:21:39;;;;;;;12.20;8.02;;;11.70;80.40;;;;;;5013509;28;20421;-66
2021/04/16 02:24:07;;;;;;;13.65;8.57;;;11.70;80.70;;;;;;5014497;28;20033;-64
2021/04/16 02:26:33;;;;;;;11.88;8.48;;;11.70;80.70;;;;;;5014303;28;20034;-64
2021/04/16 02:28:59;;;;;;;14.43;8.93;;;11.70;80.90;;;;;;5012541;28;20048;-66
2021/04/16 02:31:25;;;;;;;10.68;8.13;;;11.60;80.70;;;;;;4995800;28;20105;-65
2021/04/16 02:33:51;;;;;;;13.63;8.82;;;11.60;80.90;;;;;;5013820;28;20026;-66
2021/04/16 02:36:16;;;;;;;14.82;8.77;;;11.60;81.00;;;;;;5014111;28;20022;-64
2021/04/16 02:38:42;;;;;;;13.52;8.80;;;11.60;81.00;;;;;;5013993;28;20057;-64
2021/04/16 02:41:08;;;;;;;12.15;8.75;;;11.60;80.80;;;;;;5013893;28;20030;-64
2021/04/16 02:43:34;;;;;;;12.18;8.35;;;11.60;80.80;;;;;;5009422;28;20026;-66
2021/04/16 02:46:00;;;;;;;12.30;8.30;;;11.60;80.80;;;;;;5014021;28;20034;-64
2021/04/16 02:48:25;;;;;;;11.13;7.80;;;11.60;80.90;;;;;;5013187;28;20037;-64
2021/04/16 02:50:52;;;;;;;12.40;8.02;;;11.60;81.00;;;;;;5013910;28;20033;-64
2021/04/16 02:53:17;;;;;;;10.73;8.35;;;11.60;80.90;;;;;;5013819;28;20484;-64
2021/04/16 02:55:43;;;;;;;11.48;8.70;;;11.60;81.20;;;;;;5014032;28;20022;-64
2021/04/16 02:58:09;;;;;;;11.02;8.05;;;11.70;81.20;;;;;;5013659;28;20393;-64
2021/04/16 03:00:35;;;;;;;12.20;8.63;;;11.70;81.30;;;;;;5032577;28;20048;-64
2021/04/16 03:03:01;;;;;;;11.80;8.05;;;11.80;81.00;;;;;;5033271;28;20049;-64
2021/04/16 03:05:27;;;;;;;11.07;7.85;;;11.80;81.20;;;;;;5013663;28;20057;-64
2021/04/16 03:07:54;;;;;;;11.93;8.07;;;11.80;80.90;;;;;;5011205;28;20033;-64
2021/04/16 03:10:27;;;;;;;10.00;7.43;;;11.80;81.00;;;;;;5010749;28;20105;-64
2021/04/16 03:12:53;;;;;;;10.75;7.75;;;11.90;80.90;;;;;;5011609;28;20531;-64
2021/04/16 03:15:18;;;;;;;11.43;7.82;;;11.90;80.80;;;;;;5007960;28;20022;-66
2021/04/16 03:17:44;;;;;;;12.18;7.80;;;11.90;80.70;;;;;;4991853;28;20018;-64
2021/04/16 03:20:11;;;;;;;9.88;7.00;;;11.90;80.60;;;;;;4991634;28;20026;-64
2021/04/16 03:22:37;;;;;;;11.57;7.18;;;11.90;80.80;;;;;;4991883;28;20026;-64
2021/04/16 03:25:05;;;;;;;10.75;8.05;;;11.90;80.80;;;;;;4993625;28;20049;-66
2021/04/16 03:27:31;;;;;;;13.43;7.95;;;11.90;80.70;;;;;;4993831;28;20504;-64
2021/04/16 03:29:56;;;;;;;15.88;9.10;;;11.90;80.80;;;;;;5025670;28;20053;-64
2021/04/16 03:32:22;;;;;;;15.52;8.77;;;11.90;80.60;;;;;;5032764;28;20060;-64
2021/04/16 03:34:48;;;;;;;13.68;8.70;;;11.90;80.40;;;;;;5031955;28;20022;-64
2021/04/16 03:37:14;;;;;;;15.10;8.82;;;11.90;80.60;;;;;;5031974;28;20416;-64
2021/04/16 03:39:39;;;;;;;14.68;8.88;;;11.90;80.60;;;;;;5032361;28;20037;-64
2021/04/16 03:42:05;;;;;;;13.43;9.32;;;11.90;80.60;;;;;;5032894;28;20509;-64
2021/04/16 03:44:32;;;;;;;13.65;8.63;;;11.90;80.40;;;;;;5018058;28;20497;-64
2021/04/16 03:46:58;;;;;;;13.77;9.48;;;11.90;80.40;;;;;;4993599;28;20026;-64
2021/04/16 03:49:23;;;;;;;18.05;9.18;;;11.90;80.50;;;;;;4992322;28;20026;-64
2021/04/16 03:51:55;;;;;;;19.20;10.38;;;11.90;80.50;;;;;;4993536;28;20070;-64
2021/04/16 03:54:22;;;;;;;19.17;11.07;;;12.00;80.50;;;;;;4993547;28;20026;-64
2021/04/16 03:56:48;;;;;;;22.08;11.52;;;12.00;80.30;;;;;;4993656;28;20026;-64
2021/04/16 03:59:14;;;;;;;26.45;12.90;;;12.00;80.30;;;;;;5013479;28;20381;-64
2021/04/16 04:01:40;;;;;;;31.92;13.10;;;12.00;80.10;;;;;;5032606;28;20032;-64
2021/04/16 04:04:06;;;;;;;25.00;11.93;;;12.00;80.20;;;;;;5032899;28;20041;-64
2021/04/16 04:06:31;;;;;;;21.58;11.55;;;12.10;80.30;;;;;;5032700;28;20377;-66
2021/04/16 04:08:57;;;;;;;30.25;13.25;;;12.10;80.40;;;;;;5032555;28;20104;-66
2021/04/16 04:11:23;;;;;;;20.25;11.05;;;12.10;80.40;;;;;;5032104;28;20038;-64
2021/04/16 04:13:48;;;;;;;18.60;10.75;;;12.10;80.30;;;;;;5032303;28;20017;-66
2021/04/16 04:16:14;;;;;;;17.38;11.30;;;12.10;80.20;;;;;;5032194;28;20062;-64
2021/04/16 04:18:40;;;;;;;21.23;11.00;;;12.10;80.20;;;;;;5018941;28;20432;-64
2021/04/16 04:21:05;;;;;;;16.30;10.15;;;12.10;80.10;;;;;;5012479;28;20030;-64
2021/04/16 04:23:31;;;;;;;14.55;10.18;;;12.20;80.10;;;;;;5012433;28;20468;-64
2021/04/16 04:25:57;;;;;;;15.35;11.20;;;12.20;80.10;;;;;;5012381;28;20080;-64
2021/04/16 04:28:23;;;;;;;12.55;9.98;;;12.20;80.10;;;;;;5017772;28;20376;-64
2021/04/16 04:30:49;;;;;;;17.80;10.27;;;12.20;80.10;;;;;;5032164;28;20756;-64
2021/04/16 04:33:15;;;;;;;15.45;11.15;;;12.20;80.00;;;;;;5032133;28;20025;-64
2021/04/16 04:35:40;;;;;;;16.67;11.10;;;12.20;80.00;;;;;;5032193;28;20025;-64
2021/04/16 04:38:07;;;;;;;17.20;10.85;;;12.20;79.90;;;;;;5032003;28;20029;-64
2021/04/16 04:40:34;;;;;;;17.13;10.98;;;12.20;79.90;;;;;;5032193;28;20060;-64
2021/04/16 04:42:59;;;;;;;16.00;10.68;;;12.20;79.80;;;;;;5030624;28;20120;-64
2021/04/16 04:45:25;;;;;;;12.98;9.73;;;12.20;79.70;;;;;;5008062;28;20164;-64
2021/04/16 04:47:51;;;;;;;12.63;10.18;;;12.20;79.80;;;;;;4996111;28;20030;-64
2021/04/16 04:50:18;;;;;;;12.10;9.75;;;12.20;79.70;;;;;;4994823;28;20019;-64
2021/04/16 04:52:44;;;;;;;14.05;10.93;;;12.20;79.80;;;;;;4996775;28;20023;-64
2021/04/16 04:55:19;;;;;;;14.88;12.68;;;12.20;79.80;;;;;;4995908;28;20022;-66
2021/04/16 04:57:44;;;;;;;14.68;13.25;;;12.20;79.90;;;;;;4996153;28;20027;-65
2021/04/16 05:00:13;;;;;;;19.48;17.40;;;12.10;79.90;;;;;;5009632;28;20358;-65
2021/04/16 05:02:39;;;;;;;19.92;17.75;;;12.20;80.00;;;;;;5015003;28;20516;-65
2021/04/16 05:05:06;;;;;;;19.33;17.55;;;12.20;80.20;;;;;;5015490;28;20026;-65
2021/04/16 05:07:32;;;;;;;21.98;19.88;;;12.20;80.30;;;;;;5015417;28;20080;-65
2021/04/16 05:09:57;;;;;;;23.27;20.77;;;12.20;80.30;;;;;;5015643;28;20021;-65
2021/04/16 05:12:23;;;;;;;19.98;18.13;;;12.30;80.60;;;;;;5015254;28;20018;-65
2021/04/16 05:14:49;;;;;;;20.48;18.50;;;12.30;80.60;;;;;;5015358;28;20095;-65
2021/04/16 05:17:14;;;;;;;17.50;15.73;;;12.30;80.80;;;;;;5007515;28;20450;-65
2021/04/16 05:19:40;;;;;;;20.23;18.05;;;12.30;80.50;;;;;;5015201;28;20049;-65
2021/04/16 05:22:06;;;;;;;27.20;24.38;;;12.40;80.30;;;;;;5015235;28;20489;-65
2021/04/16 05:24:33;;;;;;;29.45;25.90;;;12.40;80.30;;;;;;5003695;28;20023;-63
2021/04/16 05:27:06;;;;;;;27.17;22.25;;;12.30;80.40;;;;;;4995588;28;20074;-62
2021/04/16 05:29:32;;;;;;;25.35;21.60;;;12.40;80.30;;;;;;5007623;28;20481;-62
2021/04/16 05:31:59;;;;;;;29.17;23.40;;;12.30;80.30;;;;;;5013036;28;20064;-62
2021/04/16 05:34:24;;;;;;;27.80;22.63;;;12.30;80.50;;;;;;5006150;28;20085;-63
2021/04/16 05:36:50;;;;;;;25.60;21.23;;;12.30;80.50;;;;;;5008314;28;20026;-63
2021/04/16 05:39:16;;;;;;;21.70;17.77;;;12.20;80.50;;;;;;5009299;28;20026;-63
2021/04/16 05:41:42;;;;;;;23.77;18.92;;;12.20;80.50;;;;;;5001065;28;20843;-62
2021/04/16 05:44:09;;;;;;;25.10;19.30;;;12.30;80.80;;;;;;5003475;28;20033;-63
2021/04/16 05:46:35;;;;;;;25.83;18.63;;;12.20;80.80;;;;;;5005330;28;20057;-63
2021/04/16 05:49:00;;;;;;;26.48;21.80;;;12.20;80.90;;;;;;5006302;28;20112;-60
2021/04/16 05:51:26;;;;;;;29.00;23.05;;;12.20;81.20;;;;;;5011554;28;20030;-60
2021/04/16 05:53:52;;;;;;;28.67;23.40;;;12.20;80.90;;;;;;5006967;28;20022;-60
2021/04/16 05:56:18;;;;;;;23.35;20.27;;;12.20;81.10;;;;;;5006907;28;20229;-60
2021/04/16 05:58:44;;;;;;;24.50;18.15;;;12.20;81.00;;;;;;5007334;28;20061;-60
2021/04/16 06:01:09;;;;;;;20.25;16.60;;;12.20;81.00;;;;;;5000457;28;20532;-63
2021/04/16 06:03:37;;;;;;;20.15;15.50;;;12.20;81.00;;;;;;5002855;28;20053;-63
2021/04/16 06:06:03;;;;;;;17.70;13.65;;;12.20;81.30;;;;;;5007927;28;20037;-63
2021/04/16 06:08:28;;;;;;;17.95;14.30;;;12.20;81.60;;;;;;5006948;28;20026;-62
2021/04/16 06:10:56;;;;;;;21.15;13.48;;;12.20;81.50;;;;;;5002353;28;20034;-64
2021/04/16 06:13:22;;;;;;;21.33;13.30;;;12.20;81.50;;;;;;5005506;28;20080;-60
2021/04/16 06:15:48;;;;;;;25.77;15.07;;;12.20;81.70;;;;;;5006548;28;20082;-64
2021/04/16 06:18:13;;;;;;;25.58;15.32;;;12.20;81.60;;;;;;4995384;28;20489;-64
2021/04/16 06:20:39;;;;;;;24.10;14.23;;;12.30;81.80;;;;;;5006648;28;20119;-62
2021/04/16 06:23:05;;;;;;;24.30;13.63;;;12.30;81.90;;;;;;5006806;28;20488;-59
2021/04/16 06:25:33;;;;;;;18.02;12.65;;;12.40;82.10;;;;;;5004147;28;20053;-59
2021/04/16 06:27:59;;;;;;;18.88;12.98;;;12.30;82.00;;;;;;5003698;28;20052;-59
2021/04/16 06:30:26;;;;;;;21.75;13.38;;;12.30;81.70;;;;;;5003399;28;20034;-58
2021/04/16 06:33:13;;;;;;;27.27;16.05;;;12.30;81.40;;;;;;5007926;28;20026;-62
2021/04/16 06:35:41;;;;;;;32.63;17.58;;;12.20;81.60;;;;;;5007701;28;20049;-62
2021/04/16 06:38:08;;;;;;;25.13;15.25;;;12.20;81.80;;;;;;4999725;28;20064;-61
2021/04/16 06:40:34;;;;;;;21.75;14.25;;;12.10;82.10;;;;;;5008925;28;20038;-60
2021/04/16 06:43:00;;;;;;;17.73;11.77;;;12.20;82.50;;;;;;5001587;28;20042;-63
2021/04/16 06:45:30;;;;;;;15.48;11.23;;;12.20;82.30;;;;;;5002506;28;20029;-63
2021/04/16 06:48:03;;;;;;;15.02;10.85;;;12.20;82.20;;;;;;5002132;28;20030;-61
2021/04/16 06:50:32;;;;;;;13.00;10.27;;;12.20;82.30;;;;;;5008297;28;20057;-62
2021/04/16 06:53:05;;;;;;;14.40;11.35;;;12.20;82.50;;;;;;5004079;28;20026;-63
2021/04/16 06:55:51;;;;;;;16.92;11.70;;;12.20;82.70;;;;;;4998293;28;20044;-59
2021/04/16 06:58:23;;;;;;;15.23;10.88;;;12.20;82.90;;;;;;5005526;28;20112;-62
2021/04/16 07:01:08;;;;;;;16.30;11.30;;;12.20;83.00;;;;;;5003759;28;20057;-65
2021/04/16 07:03:41;;;;;;;18.58;12.27;;;12.30;83.30;;;;;;5005019;28;20041;-62
2021/04/16 07:06:21;;;;;;;18.33;13.77;;;12.30;83.50;;;;;;5002270;28;20080;-64
2021/04/16 07:09:07;;;;;;;15.90;11.38;;;12.50;83.80;;;;;;4997256;28;20041;-64
2021/04/16 07:11:41;;;;;;;15.48;11.80;;;12.60;83.30;;;;;;5002654;28;20030;-62
2021/04/16 07:14:15;;;;;;;13.82;10.43;;;12.70;82.90;;;;;;5000109;28;20471;-62
2021/04/16 07:16:41;;;;;;;12.65;11.02;;;12.80;82.40;;;;;;4992069;28;20026;-62
2021/04/16 07:19:15;;;;;;;12.23;9.82;;;12.80;81.90;;;;;;5001459;28;20049;-62
2021/04/16 07:21:41;;;;;;;12.82;9.25;;;12.80;81.60;;;;;;5002726;28;20041;-62
2021/04/16 07:24:07;;;;;;;10.75;8.88;;;12.80;81.50;;;;;;5003198;28;20026;-63
2021/04/16 07:26:37;;;;;;;9.85;8.18;;;12.70;81.20;;;;;;4998962;28;20034;-62
2021/04/16 07:29:04;;;;;;;11.10;8.13;;;12.80;81.60;;;;;;4998326;28;20037;-62
2021/04/16 07:31:52;;;;;;;11.95;8.52;;;12.70;81.60;;;;;;4994575;28;20072;-62
2021/04/16 07:34:44;;;;;;;11.35;8.98;;;12.70;81.60;;;;;;5000518;28;20110;-60
2021/04/16 07:37:17;;;;;;;11.85;9.73;;;12.70;81.10;;;;;;4993247;28;20029;-64
2021/04/16 07:40:05;;;;;;;13.15;10.70;;;12.70;81.40;;;;;;4999423;28;20030;-64
2021/04/16 07:42:46;;;;;;;13.63;11.10;;;12.80;81.40;;;;;;4997524;28;20180;-63
2021/04/16 07:45:39;;;;;;;15.10;11.57;;;12.80;81.70;;;;;;4993548;28;20030;-62
2021/04/16 07:48:19;;;;;;;14.95;11.45;;;12.90;81.40;;;;;;4993781;28;20316;-62
2021/04/16 07:50:47;;;;;;;14.18;12.10;;;13.00;81.00;;;;;;4997061;28;20026;-63
2021/04/16 07:53:30;;;;;;;13.85;11.40;;;13.10;80.70;;;;;;4995196;28;20030;-63
2021/04/16 07:56:11;;;;;;;15.65;12.00;;;13.20;80.40;;;;;;4993958;28;20065;-63
2021/04/16 07:58:38;;;;;;;13.65;11.10;;;13.30;80.00;;;;;;4978724;28;20034;-65
2021/04/16 08:01:26;;;;;;;15.30;12.00;;;13.30;79.70;;;;;;4989174;28;20030;-64
2021/04/16 08:04:12;;;;;;;15.20;11.73;;;13.40;79.50;;;;;;4993043;28;20099;-65
2021/04/16 08:06:43;;;;;;;13.55;11.13;;;13.50;79.20;;;;;;4997532;28;20026;-66
2021/04/16 08:09:11;;;;;;;;;;;13.50;78.60;;;;;;4999992;28;20572;-66
2021/04/16 08:11:38;;;;;;;14.75;10.80;;;13.50;79.80;;;;;;4996582;28;19968;-64
2021/04/16 08:14:10;;;;;;;16.92;13.27;;;13.60;79.40;;;;;;4990182;28;20040;-63
2021/04/16 08:16:41;;;;;;;17.02;12.80;;;13.70;79.30;;;;;;4995937;28;20048;-62
2021/04/16 08:19:22;;;;;;;16.77;12.82;;;13.80;78.90;;;;;;4999928;28;20030;-62
2021/04/16 08:21:57;;;;;;;17.00;11.88;;;13.90;78.50;;;;;;5004624;28;20044;-62
2021/04/16 08:24:32;;;;;;;13.68;10.38;;;13.90;78.00;;;;;;5002833;28;20049;-62
2021/04/16 08:27:38;;;;;;;11.10;8.90;;;13.90;77.70;;;;;;4997504;28;20030;-62
2021/04/16 08:30:24;;;;;;;10.88;8.43;;;13.80;77.00;;;;;;5000913;28;20488;-64
2021/04/16 08:33:01;;;;;;;10.25;8.43;;;13.50;77.30;;;;;;4995983;28;20025;-63
2021/04/16 08:35:35;;;;;;;10.02;8.05;;;13.30;78.00;;;;;;5001492;28;20528;-63
2021/04/16 08:38:05;;;;;;;11.27;8.90;;;13.20;78.50;;;;;;4995259;28;20121;-63
2021/04/16 08:40:40;;;;;;;10.85;8.43;;;13.10;79.30;;;;;;4995836;28;20038;-63
2021/04/16 08:43:08;;;;;;;10.55;8.32;;;13.00;79.20;;;;;;4996672;28;20037;-63
2021/04/16 08:45:38;;;;;;;11.20;8.73;;;12.90;79.40;;;;;;5000495;28;20042;-63
2021/04/16 08:48:21;;;;;;;10.48;8.52;;;12.80;79.50;;;;;;4996991;28;20049;-64
2021/04/16 08:50:54;;;;;;;10.40;7.97;;;12.70;79.80;;;;;;4999001;28;20050;-64
2021/04/16 08:53:20;;;;;;;10.05;8.05;;;12.70;79.90;;;;;;4996910;28;20066;-64
2021/04/16 08:55:51;;;;;;;8.50;7.32;;;12.70;80.30;;;;;;4995823;28;20121;-62
2021/04/16 08:58:27;;;;;;;10.20;7.35;;;12.70;80.40;;;;;;5000127;28;20504;-63
2021/04/16 09:00:58;;;;;;;9.27;7.10;;;12.70;80.20;;;;;;4995339;28;20101;-63
2021/04/16 09:03:43;;;;;;;8.02;6.28;;;12.70;80.20;;;;;;4994806;28;20050;-65
2021/04/16 09:06:19;;;;;;;8.13;6.70;;;12.70;80.40;;;;;;4999764;28;20060;-61
2021/04/16 09:08:47;;;;;;;7.18;5.40;;;12.70;80.40;;;;;;4995112;28;20040;-59
2021/04/16 09:11:34;;;;;;;6.43;5.28;;;12.70;80.50;;;;;;4998527;28;20527;-62
2021/04/16 09:14:00;;;;;;;6.70;5.50;;;12.80;81.60;;;;;;5001062;28;20065;-62
2021/04/16 09:16:47;;;;;;;7.57;5.53;;;12.80;80.90;;;;;;4994793;28;20088;-64
2021/04/16 09:19:25;;;;;;;5.82;4.82;;;12.90;80.80;;;;;;4994332;28;20084;-60
2021/04/16 09:22:12;;;;;;;6.32;5.03;;;13.00;80.50;;;;;;4999263;28;20037;-60
2021/04/16 09:24:50;;;;;;;7.47;5.00;;;13.10;80.20;;;;;;4994914;28;20679;-60
2021/04/16 09:27:39;;;;;;;5.50;4.55;;;13.10;80.10;;;;;;4998516;28;20116;-59
2021/04/16 09:30:08;;;;;;;5.68;4.65;;;13.20;79.80;;;;;;4983985;28;20092;-61
2021/04/16 09:32:34;;;;;;;5.53;4.50;;;13.20;79.70;;;;;;4990668;28;20325;-59
2021/04/16 09:35:07;;;;;;;5.22;4.55;;;13.20;79.00;;;;;;4993403;28;20149;-60
2021/04/16 09:37:40;;;;;;;5.55;4.80;;;13.10;78.70;;;;;;4994872;28;20536;-61
2021/04/16 09:40:18;;;;;;;4.75;4.25;;;13.00;78.80;;;;;;4993211;28;20394;-59
2021/04/16 09:42:58;;;;;;;5.63;4.60;;;12.80;79.20;;;;;;4997133;28;20072;-61
2021/04/16 09:45:32;;;;;;;5.63;4.45;;;12.70;79.20;;;;;;4999171;28;20153;-62
2021/04/16 09:48:05;;;;;;;5.07;4.40;;;12.60;79.80;;;;;;5003271;28;20030;-60
2021/04/16 09:50:40;;;;;;;6.45;4.93;;;12.50;80.10;;;;;;4997239;28;20149;-61
2021/04/16 09:53:20;;;;;;;6.13;5.15;;;12.40;80.50;;;;;;5002125;28;20018;-61
2021/04/16 09:55:56;;;;;;;6.72;3.97;;;12.50;81.00;;;;;;4994806;28;20336;-64
2021/04/16 09:58:48;;;;;;;6.75;4.03;;;12.50;80.30;;;;;;4992175;28;20041;-63
2021/04/16 10:01:17;;;;;;;7.47;3.95;;;12.60;79.90;;;;;;4995660;28;20042;-62
2021/04/16 10:03:54;;;;;;;4.25;3.25;;;12.60;80.20;;;;;;4992106;28;20191;-62
2021/04/16 10:06:28;;;;;;;6.57;2.95;;;12.60;80.80;;;;;;4991663;28;20166;-63
2021/04/16 10:09:16;;;;;;;7.40;3.67;;;12.70;80.10;;;;;;4988558;28;20352;-63
2021/04/16 10:11:57;;;;;;;7.05;4.55;;;12.60;79.60;;;;;;4984933;28;20132;-63
2021/04/16 10:14:23;;;;;;;9.32;4.10;;;12.60;78.60;;;;;;4984757;28;20626;-63
2021/04/16 10:17:10;;;;;;;7.40;4.10;;;12.60;78.60;;;;;;4986565;28;20216;-63
2021/04/16 10:19:39;;;;;;;5.63;3.85;;;12.50;78.70;;;;;;4991864;28;20040;-63
2021/04/16 10:22:35;;;;;;;7.35;3.80;;;12.40;79.60;;;;;;4991416;28;20034;-63
2021/04/16 12:39:19;;;;;;;3.20;1.95;;;11.80;75.40;;;;;;4996737;28;20095;-63
2021/04/16 12:41:51;;;;;;;2.55;2.00;;;11.70;75.20;;;;;;4992140;28;20496;-65
2021/04/16 12:44:42;;;;;;;2.38;2.17;;;11.70;75.40;;;;;;4987469;28;20493;-64
2021/04/16 12:47:20;;;;;;;2.67;2.30;;;11.60;75.60;;;;;;4987887;28;20030;-64
2021/04/16 12:49:46;;;;;;;6.32;2.92;;;11.50;75.50;;;;;;4994469;28;20054;-62
2021/04/16 12:52:13;;;;;;;4.72;3.00;;;11.50;75.70;;;;;;4990958;28;20095;-64
2021/04/16 12:54:40;;;;;;;5.25;2.67;;;11.50;75.60;;;;;;4993778;28;20108;-64
2021/04/16 12:57:10;;;;;;;4.05;3.10;;;11.60;75.40;;;;;;4999541;28;20141;-64
2021/04/16 12:59:37;;;;;;;4.47;2.85;;;11.50;75.60;;;;;;4994102;28;20034;-65
2021/04/16 13:02:05;;;;;;;4.15;2.60;;;11.50;75.10;;;;;;4989051;28;20757;-66
2021/04/16 13:04:37;;;;;;;2.92;2.40;;;11.40;75.00;;;;;;4996401;28;20054;-64
2021/04/16 13:07:03;;;;;;;2.67;2.47;;;11.40;75.40;;;;;;4996105;28;20037;-64
2021/04/16 13:09:28;;;;;;;3.55;2.75;;;11.40;75.20;;;;;;4989148;28;20041;-64
2021/04/16 13:11:54;;;;;;;2.97;2.60;;;11.30;75.30;;;;;;4986896;28;20505;-64
2021/04/16 13:14:20;;;;;;;3.05;2.65;;;11.40;75.40;;;;;;4991770;28;20895;-63
2021/04/16 13:16:46;;;;;;;3.28;2.60;;;11.30;75.20;;;;;;4995113;28;20029;-64
2021/04/16 13:19:25;;;;;;;2.90;2.67;;;11.40;75.40;;;;;;4991260;28;20102;-62
2021/04/16 13:21:56;;;;;;;3.05;2.67;;;11.40;75.10;;;;;;4992286;28;20036;-64
2021/04/16 13:24:22;;;;;;;3.13;2.60;;;11.40;75.00;;;;;;4995139;28;20045;-63
2021/04/16 13:26:48;;;;;;;3.95;2.60;;;11.30;74.60;;;;;;4992786;28;20050;-62
2021/04/16 13:29:14;;;;;;;3.03;2.72;;;11.30;74.70;;;;;;4991086;28;20046;-63
2021/04/16 13:31:39;;;;;;;2.72;2.53;;;11.20;75.00;;;;;;4992174;28;20121;-65
2021/04/16 13:34:05;;;;;;;2.17;1.98;;;11.30;75.40;;;;;;4990414;28;20077;-65
2021/04/16 13:36:33;;;;;;;2.35;2.15;;;11.40;75.00;;;;;;4989669;28;20022;-64
2021/04/16 13:39:00;;;;;;;4.28;2.78;;;11.50;75.00;;;;;;4988280;28;20741;-64
2021/04/16 13:41:26;;;;;;;3.42;2.55;;;11.50;74.30;;;;;;4991969;28;20036;-64
2021/04/16 13:43:53;;;;;;;2.97;2.65;;;11.50;74.20;;;;;;4992640;28;20026;-64
2021/04/16 13:46:24;;;;;;;3.13;2.53;;;11.60;74.00;;;;;;4990500;28;20438;-64
2021/04/16 13:48:50;;;;;;;2.75;2.50;;;11.50;73.40;;;;;;4996342;28;20030;-64
2021/04/16 13:51:19;;;;;;;2.85;2.33;;;11.50;73.90;;;;;;4990689;28;20485;-64
2021/04/16 13:53:45;;;;;;;2.72;2.50;;;11.60;73.80;;;;;;4987198;28;20038;-64
2021/04/16 13:56:11;;;;;;;3.03;2.45;;;11.60;73.80;;;;;;4988182;28;20045;-64
2021/04/16 13:58:37;;;;;;;2.78;2.38;;;11.60;73.50;;;;;;4992758;28;20379;-64
2021/04/16 14:01:04;;;;;;;2.55;2.33;;;11.60;73.50;;;;;;4994671;28;20029;-65
2021/04/16 14:03:36;;;;;;;2.83;2.53;;;11.60;73.60;;;;;;4993748;28;20041;-64
2021/04/16 14:06:06;;;;;;;2.65;2.30;;;11.70;73.20;;;;;;4990221;28;20034;-64
2021/04/16 14:08:35;;;;;;;2.72;2.20;;;11.60;72.40;;;;;;4995114;28;20544;-64
2021/04/16 14:11:01;;;;;;;3.80;2.58;;;11.60;72.50;;;;;;4987275;28;20045;-64
2021/04/16 14:13:28;;;;;;;3.03;2.40;;;11.50;72.60;;;;;;4984881;28;20029;-64
2021/04/16 14:15:56;;;;;;;2.85;2.58;;;11.50;72.50;;;;;;4987043;28;20022;-64
2021/04/16 14:18:33;;;;;;;4.22;2.83;;;11.40;72.40;;;;;;4994702;28;20138;-64
2021/04/16 14:20:58;;;;;;;3.92;2.75;;;11.40;72.50;;;;;;4993434;28;20026;-64
2021/04/16 14:23:24;;;;;;;4.18;2.88;;;11.40;72.80;;;;;;4996743;28;20028;-65
2021/04/16 14:25:51;;;;;;;4.22;2.92;;;11.40;72.20;;;;;;4996843;28;20153;-64
2021/04/16 14:28:18;;;;;;;3.33;2.53;;;11.40;71.80;;;;;;4997231;28;20034;-64
2021/04/16 14:30:44;;;;;;;3.03;2.72;;;11.30;71.70;;;;;;4994848;28;20034;-65
2021/04/16 14:33:21;;;;;;;2.50;2.30;;;11.30;71.80;;;;;;4984012;28;20049;-64
2021/04/16 14:35:47;;;;;;;2.78;2.40;;;11.20;71.80;;;;;;4994302;28;20037;-65
2021/04/16 14:38:13;;;;;;;3.03;2.30;;;11.20;71.90;;;;;;4990361;28;21730;-64
2021/04/16 14:40:39;;;;;;;3.08;2.40;;;11.10;71.80;;;;;;4988525;28;20054;-65
2021/04/16 14:43:06;;;;;;;3.38;2.63;;;11.10;71.70;;;;;;4992921;28;20025;-61
2021/04/16 14:45:35;;;;;;;2.88;2.50;;;11.10;71.70;;;;;;4994291;28;20099;-60
2021/04/16 14:48:01;;;;;;;3.17;2.47;;;11.00;71.60;;;;;;4993641;28;20014;-62
2021/04/16 14:50:28;;;;;;;3.55;2.60;;;10.90;71.70;;;;;;4994258;28;20026;-62
2021/04/16 14:52:56;;;;;;;2.50;2.30;;;10.90;72.00;;;;;;4992170;28;20033;-60
2021/04/16 14:55:27;;;;;;;3.38;2.75;;;10.90;72.40;;;;;;4994453;28;20034;-62
2021/04/16 14:57:55;;;;;;;4.50;2.50;;;11.00;72.40;;;;;;4994791;28;20053;-60
2021/04/16 15:00:23;;;;;;;4.28;2.63;;;11.00;72.40;;;;;;4989976;28;20034;-62
2021/04/16 15:02:49;;;;;;;3.85;2.90;;;11.00;72.30;;;;;;4993062;28;20065;-61
2021/04/16 15:05:18;;;;;;;3.70;2.45;;;11.00;72.20;;;;;;4993611;28;20414;-61